Time;durP1;ratioP1;P1;durP2;ratioP2;P2;SDS_P1;SDS_P2;PMS_P1;PMS_P2;Temp;Humidity;BMP_temperature;BMP_pressure;BME280_temperature;BME280_humidity;BME280_pressure;Samples;Min_cycle;Max_cycle;Signal;HPM_P1;HPM_P2
2023/09/08 00:04:45;;;;;;;;;;;20.10;99.90;;;;;;15693447;22;20260;-35
2023/09/08 00:10:46;;;;;;;;;;;19.90;99.90;;;;;;15685351;22;19918;-35
2023/09/08 00:16:48;;;;;;;;;;;19.70;99.90;;;;;;15690373;22;19983;-35
2023/09/08 00:22:50;;;;;;;;;;;19.60;99.90;;;;;;15668150;22;20668;-34
2023/09/08 00:28:52;;;;;;;;;;;19.40;99.90;;;;;;15696620;22;19933;-34
2023/09/08 00:34:53;;;;;;;;;;;19.60;99.90;;;;;;15695813;22;19923;-34
2023/09/08 00:40:55;;;;;;;;;;;19.60;99.90;;;;;;15674840;22;19923;-34
2023/09/08 00:46:57;;;;;;;;;;;19.60;99.90;;;;;;15670769;22;19922;-34
2023/09/08 00:52:59;;;;;;;;;;;19.60;99.90;;;;;;15690332;22;19997;-34
2023/09/08 00:59:02;;;;;;;;;;;19.60;99.90;;;;;;15696047;22;20280;-34
2023/09/08 01:05:04;;;;;;;;;;;19.60;99.90;;;;;;15695301;22;19967;-34
2023/09/08 01:11:06;;;;;;;;;;;19.50;99.90;;;;;;15668556;22;20256;-34
2023/09/08 01:17:08;;;;;;;;;;;19.40;99.90;;;;;;15698001;22;19958;-34
2023/09/08 01:23:10;;;;;;;;;;;19.30;99.90;;;;;;15667133;22;20294;-34
2023/09/08 01:29:12;;;;;;;;;;;19.30;99.90;;;;;;15699726;22;19923;-35
2023/09/08 01:35:15;;;;;;;;;;;19.20;99.90;;;;;;15695866;22;20239;-34
2023/09/08 01:41:16;;;;;;;;;;;19.30;99.90;;;;;;15680849;22;20353;-35
2023/09/08 01:47:18;;;;;;;;;;;19.30;99.90;;;;;;15672019;22;19969;-35
2023/09/08 01:53:20;;;;;;;;;;;19.10;99.90;;;;;;15681865;22;20575;-34
2023/09/08 01:59:21;;;;;;;;;;;19.00;99.90;;;;;;15670076;22;19964;-35
2023/09/08 02:05:25;;;;;;;;;;;18.90;99.90;;;;;;15682388;22;20290;-35
2023/09/08 02:11:27;;;;;;;;;;;18.90;99.90;;;;;;15648126;22;19918;-35
2023/09/08 02:17:29;;;;;;;;;;;18.90;99.90;;;;;;15678454;22;20005;-35
2023/09/08 02:23:30;;;;;;;;;;;18.90;99.90;;;;;;15682608;22;20404;-35
2023/09/08 02:29:32;;;;;;;;;;;18.80;99.90;;;;;;15687958;22;20484;-35
2023/09/08 02:35:35;;;;;;;;;;;18.70;99.90;;;;;;15676075;22;19962;-35
2023/09/08 02:41:37;;;;;;;;;;;18.60;99.90;;;;;;15689216;22;19930;-35
2023/09/08 02:47:39;;;;;;;;;;;18.40;99.90;;;;;;15701392;22;19928;-35
2023/09/08 02:53:40;;;;;;;;;;;18.40;99.90;;;;;;15699999;22;19929;-34
2023/09/08 02:59:42;;;;;;;;;;;18.30;99.90;;;;;;15699550;22;20635;-35
2023/09/08 03:05:44;;;;;;;;;;;18.20;99.90;;;;;;15703436;22;19925;-36
2023/09/08 03:11:46;;;;;;;;;;;18.20;99.90;;;;;;15701722;22;19922;-35
2023/09/08 03:17:47;;;;;;;;;;;18.20;99.90;;;;;;15700242;22;19995;-35
2023/09/08 03:23:49;;;;;;;;;;;18.20;99.90;;;;;;15702486;22;20335;-34
2023/09/08 03:29:51;;;;;;;;;;;18.20;99.90;;;;;;15695951;22;20339;-35
2023/09/08 03:35:53;;;;;;;;;;;18.10;99.90;;;;;;15697500;22;19968;-35
2023/09/08 03:41:54;;;;;;;;;;;18.20;99.90;;;;;;15677397;22;20241;-35
2023/09/08 03:47:56;;;;;;;;;;;18.30;99.90;;;;;;15680794;22;19957;-35
2023/09/08 03:53:58;;;;;;;;;;;18.40;99.90;;;;;;15683528;22;19977;-34
2023/09/08 04:00:00;;;;;;;;;;;18.40;99.90;;;;;;15687249;22;19958;-35
2023/09/08 04:06:02;;;;;;;;;;;18.40;99.90;;;;;;15648270;22;19930;-35
2023/09/08 04:12:04;;;;;;;;;;;18.40;99.90;;;;;;15660487;22;19969;-35
2023/09/08 04:18:06;;;;;;;;;;;18.50;99.90;;;;;;15675349;22;19967;-35
2023/09/08 04:24:10;;;;;;;;;;;18.50;99.90;;;;;;15680271;22;19949;-35
2023/09/08 04:30:12;;;;;;;;;;;18.50;99.90;;;;;;15674873;22;19922;-35
2023/09/08 04:36:15;;;;;;;;;;;18.30;99.90;;;;;;15679343;22;19923;-35
2023/09/08 04:42:17;;;;;;;;;;;18.00;99.90;;;;;;15686939;22;20402;-35
2023/09/08 04:48:18;;;;;;;;;;;17.90;99.90;;;;;;15695843;22;20017;-35
2023/09/08 04:54:22;;;;;;;;;;;18.00;99.90;;;;;;15699634;22;20243;-34
2023/09/08 05:00:24;;;;;;;;;;;18.00;99.90;;;;;;15698909;22;19922;-35
2023/09/08 05:06:25;;;;;;;;;;;17.80;99.90;;;;;;15687647;22;19922;-35
2023/09/08 05:12:27;;;;;;;;;;;17.40;99.90;;;;;;15699175;22;19922;-35
2023/09/08 05:18:31;;;;;;;;;;;17.30;99.90;;;;;;15667042;22;21442;-35
2023/09/08 05:24:33;;;;;;;;;;;17.10;99.90;;;;;;15695595;22;19927;-35
2023/09/08 05:30:34;;;;;;;;;;;17.30;99.90;;;;;;15698161;22;19922;-35
2023/09/08 05:36:38;;;;;;;;;;;17.50;99.90;;;;;;15701770;22;20078;-35
2023/09/08 05:42:39;;;;;;;;;;;17.10;99.90;;;;;;15673266;22;19929;-35
2023/09/08 05:48:45;;;;;;;;;;;17.10;99.90;;;;;;15676214;22;19952;-35
2023/09/08 05:54:47;;;;;;;;;;;17.00;99.90;;;;;;15680933;22;19975;-35
2023/09/08 06:00:48;;;;;;;;;;;17.50;99.90;;;;;;15655914;22;20688;-35
2023/09/08 06:06:50;;;;;;;;;;;17.50;99.90;;;;;;15676043;22;20043;-35
2023/09/08 06:12:52;;;;;;;;;;;17.70;99.90;;;;;;15681963;22;19922;-35
2023/09/08 06:18:54;;;;;;;;;;;18.00;99.90;;;;;;15677751;22;20208;-35
2023/09/08 06:24:55;;;;;;;;;;;18.10;99.90;;;;;;15683918;22;19947;-35
2023/09/08 06:30:57;;;;;;;;;;;18.20;99.90;;;;;;15686220;22;20348;-35
2023/09/08 06:36:59;;;;;;;;;;;18.40;99.90;;;;;;15679098;22;19925;-35
2023/09/08 06:43:00;;;;;;;;;;;18.70;99.90;;;;;;15700338;22;20332;-35
2023/09/08 06:49:04;;;;;;;;;;;18.70;99.90;;;;;;15702025;22;19929;-35
2023/09/08 06:55:06;;;;;;;;;;;18.80;99.90;;;;;;15694694;22;20009;-35
2023/09/08 07:01:08;;;;;;;;;;;18.80;99.90;;;;;;15700158;22;20359;-35
2023/09/08 07:07:10;;;;;;;;;;;18.90;99.90;;;;;;15701569;22;19983;-35
2023/09/08 07:13:12;;;;;;;;;;;19.10;99.90;;;;;;15699452;22;19930;-35
2023/09/08 07:19:13;;;;;;;;;;;19.10;99.90;;;;;;15695106;22;19933;-35
2023/09/08 07:25:15;;;;;;;;;;;19.30;99.90;;;;;;15672357;22;19929;-35
2023/09/08 07:31:17;;;;;;;;;;;19.50;99.90;;;;;;15696375;22;19965;-36
2023/09/08 07:37:19;;;;;;;;;;;19.90;99.90;;;;;;15697933;22;19958;-35
2023/09/08 07:43:21;;;;;;;;;;;19.80;99.90;;;;;;15672313;22;19922;-35
2023/09/08 07:49:23;;;;;;;;;;;20.10;99.90;;;;;;15676709;22;19947;-35
2023/09/08 07:55:28;;;;;;;;;;;20.30;99.90;;;;;;15652026;22;20205;-35
2023/09/08 08:01:30;;;;;;;;;;;20.60;99.90;;;;;;15677854;22;20163;-35
2023/09/08 08:07:32;;;;;;;;;;;20.80;99.90;;;;;;15681199;22;20059;-35
2023/09/08 08:13:33;;;;;;;;;;;21.10;99.90;;;;;;15684725;22;20008;-36
2023/09/08 08:19:35;;;;;;;;;;;21.30;99.90;;;;;;15681743;22;19927;-35
2023/09/08 08:25:37;;;;;;;;;;;21.50;99.90;;;;;;15678241;22;20005;-35
2023/09/08 08:31:38;;;;;;;;;;;22.10;99.90;;;;;;15677013;22;20456;-36
2023/09/08 08:37:40;;;;;;;;;;;22.60;99.90;;;;;;15685026;22;20268;-35
2023/09/08 08:43:42;;;;;;;;;;;22.80;99.90;;;;;;15693224;22;19929;-35
2023/09/08 08:49:46;;;;;;;;;;;23.00;99.90;;;;;;15697971;22;19933;-35
2023/09/08 08:55:49;;;;;;;;;;;23.40;99.90;;;;;;15695053;22;19923;-36
2023/09/08 09:01:50;;;;;;;;;;;23.90;99.90;;;;;;15698289;22;20241;-35
2023/09/08 09:07:53;;;;;;;;;;;24.30;99.90;;;;;;15696543;22;19930;-37
2023/09/08 09:13:55;;;;;;;;;;;24.80;99.90;;;;;;15694237;22;19967;-37
2023/09/08 09:20:17;;;;;;;;;;;25.20;99.90;;;;;;15692903;22;19969;-35
2023/09/08 09:26:25;;;;;;;;;;;25.70;99.90;;;;;;15695268;22;19929;-35
2023/09/08 09:32:29;;;;;;;;;;;26.10;99.90;;;;;;15693853;22;19923;-36
2023/09/08 09:38:31;;;;;;;;;;;26.50;99.90;;;;;;15691022;22;19934;-36
2023/09/08 09:44:33;;;;;;;;;;;26.70;99.90;;;;;;15639681;22;19964;-35
2023/09/08 09:50:36;;;;;;;;;;;27.00;99.90;;;;;;15680293;22;19934;-36
2023/09/08 09:56:38;;;;;;;;;;;27.10;99.90;;;;;;15646315;22;20227;-36
2023/09/08 10:02:40;;;;;;;;;;;27.20;99.90;;;;;;15675093;22;19949;-36
2023/09/08 10:08:43;;;;;;;;;;;27.30;99.90;;;;;;15684223;22;20340;-37
2023/09/08 10:14:45;;;;;;;;;;;27.20;99.90;;;;;;15675650;22;20409;-36
2023/09/08 10:20:47;;;;;;;;;;;27.60;99.90;;;;;;15687606;22;19930;-36
2023/09/08 10:26:54;;;;;;;;;;;27.60;99.90;;;;;;15676807;22;20005;-36
2023/09/08 10:32:56;;;;;;;;;;;28.10;99.90;;;;;;15686113;22;20356;-36
2023/09/08 10:39:17;;;;;;;;;;;28.00;99.90;;;;;;15658855;22;19922;-37
2023/09/08 10:45:20;;;;;;;;;;;28.10;99.90;;;;;;15670035;22;19922;-36
2023/09/08 10:51:24;;;;;;;;;;;28.40;99.90;;;;;;15698303;22;20275;-36
2023/09/08 10:57:26;;;;;;;;;;;28.60;99.90;;;;;;15698464;22;19923;-37
2023/09/08 11:03:42;;;;;;;;;;;28.50;99.90;;;;;;15701093;22;20020;-36
2023/09/08 11:09:44;;;;;;;;;;;28.10;99.90;;;;;;15698167;22;19991;-37
2023/09/08 11:15:46;;;;;;;;;;;28.60;99.90;;;;;;15692828;22;20343;-36
2023/09/08 11:21:49;;;;;;;;;;;29.00;99.90;;;;;;15700397;22;19923;-36
2023/09/08 11:27:51;;;;;;;;;;;29.20;99.90;;;;;;15697528;22;19923;-36
2023/09/08 11:33:56;;;;;;;;;;;28.90;99.90;;;;;;15680953;22;20395;-36
2023/09/08 11:39:58;;;;;;;;;;;28.70;99.90;;;;;;15692345;22;19923;-36
2023/09/08 11:46:00;;;;;;;;;;;29.00;99.90;;;;;;15696458;22;20091;-40
2023/09/08 11:52:03;;;;;;;;;;;28.90;99.90;;;;;;15699206;22;19922;-36
2023/09/08 11:58:05;;;;;;;;;;;28.80;99.90;;;;;;15700758;22;19927;-36
2023/09/08 12:04:16;;;;;;;;;;;29.20;99.90;;;;;;15701473;22;19926;-37
2023/09/08 12:10:18;;;;;;;;;;;29.20;99.90;;;;;;15696686;22;19945;-36
2023/09/08 12:16:22;;;;;;;;;;;29.10;99.90;;;;;;15681160;22;19919;-36
2023/09/08 12:22:24;;;;;;;;;;;29.00;99.90;;;;;;15698287;22;19922;-36
2023/09/08 12:28:30;;;;;;;;;;;29.40;99.90;;;;;;15693625;22;20427;-37
2023/09/08 12:34:32;;;;;;;;;;;29.50;99.90;;;;;;15667942;22;19949;-36
2023/09/08 12:40:35;;;;;;;;;;;29.40;99.90;;;;;;15697896;22;20025;-36
2023/09/08 12:46:36;;;;;;;;;;;29.80;99.90;;;;;;15687262;22;19923;-37
2023/09/08 12:52:38;;;;;;;;;;;29.60;99.90;;;;;;15693614;22;20312;-36
2023/09/08 12:58:40;;;;;;;;;;;29.90;99.90;;;;;;15696909;22;20008;-36
2023/09/08 13:04:42;;;;;;;;;;;29.70;99.90;;;;;;15683024;22;20196;-37
2023/09/08 13:10:43;;;;;;;;;;;29.50;99.90;;;;;;15690773;22;20011;-36
2023/09/08 13:16:45;;;;;;;;;;;30.00;99.90;;;;;;15690354;22;19927;-36
2023/09/08 13:22:47;;;;;;;;;;;29.70;99.90;;;;;;15691995;22;19941;-36
2023/09/08 13:28:49;;;;;;;;;;;29.60;99.90;;;;;;15699075;22;20033;-36
2023/09/08 13:34:51;;;;;;;;;;;29.70;99.90;;;;;;15688092;22;19922;-36
2023/09/08 13:40:53;;;;;;;;;;;29.50;99.90;;;;;;15666621;22;19922;-36
2023/09/08 13:46:55;;;;;;;;;;;29.60;99.90;;;;;;15693237;22;19927;-36
2023/09/08 13:52:57;;;;;;;;;;;29.60;99.90;;;;;;15677309;22;20405;-36
2023/09/08 13:59:01;;;;;;;;;;;29.50;99.90;;;;;;15685272;22;19997;-36
2023/09/08 14:05:05;;;;;;;;;;;29.40;99.90;;;;;;15690001;22;19926;-36
2023/09/08 14:11:14;;;;;;;;;;;29.30;99.90;;;;;;15698182;22;19923;-36
2023/09/08 14:17:27;;;;;;;;;;;29.20;99.90;;;;;;15693560;22;19961;-35
2023/09/08 14:23:28;;;;;;;;;;;29.20;99.90;;;;;;15673397;22;19929;-37
2023/09/08 14:29:33;;;;;;;;;;;28.80;99.90;;;;;;15698472;22;20348;-36
2023/09/08 14:35:34;;;;;;;;;;;28.60;99.90;;;;;;15672427;22;19930;-36
2023/09/08 14:41:36;;;;;;;;;;;28.90;99.90;;;;;;15701433;22;19973;-36
2023/09/08 14:47:38;;;;;;;;;;;28.90;99.90;;;;;;15697011;22;19922;-36
2023/09/08 14:53:40;;;;;;;;;;;29.10;99.90;;;;;;15697957;22;20391;-37
2023/09/08 14:59:42;;;;;;;;;;;29.10;99.90;;;;;;15700518;22;20351;-37
2023/09/08 15:05:45;;;;;;;;;;;29.50;99.90;;;;;;15699429;22;19922;-37
2023/09/08 15:11:46;;;;;;;;;;;29.60;99.90;;;;;;15696156;22;20158;-36
2023/09/08 15:17:48;;;;;;;;;;;29.40;99.90;;;;;;15699742;22;19930;-36
2023/09/08 15:23:50;;;;;;;;;;;29.70;99.90;;;;;;15701162;22;19919;-36
2023/09/08 15:29:52;;;;;;;;;;;29.60;99.90;;;;;;15696664;22;20332;-36
2023/09/08 15:35:54;;;;;;;;;;;29.40;99.90;;;;;;15699048;22;20019;-36
2023/09/08 15:41:56;;;;;;;;;;;29.40;99.90;;;;;;15673544;22;20005;-36
2023/09/08 15:47:58;;;;;;;;;;;29.70;99.90;;;;;;15696869;22;19922;-36
2023/09/08 15:54:00;;;;;;;;;;;29.80;99.90;;;;;;15683415;22;19922;-36
2023/09/08 16:00:02;;;;;;;;;;;29.40;99.90;;;;;;15694862;22;20638;-37
2023/09/08 16:06:04;;;;;;;;;;;29.30;99.90;;;;;;15689425;22;20278;-36
2023/09/08 16:12:05;;;;;;;;;;;29.30;99.90;;;;;;15662344;22;19993;-36
2023/09/08 16:18:09;;;;;;;;;;;29.30;99.90;;;;;;15695255;22;19984;-37
2023/09/08 16:24:11;;;;;;;;;;;29.20;99.90;;;;;;15690744;22;20490;-37
2023/09/08 16:30:13;;;;;;;;;;;29.10;99.90;;;;;;15667369;22;19937;-36
2023/09/08 16:36:15;;;;;;;;;;;29.10;99.90;;;;;;15659453;22;19929;-36
2023/09/08 16:42:16;;;;;;;;;;;29.00;99.90;;;;;;15690098;22;19961;-36
2023/09/08 16:48:18;;;;;;;;;;;29.00;99.90;;;;;;15680206;22;20362;-36
2023/09/08 16:54:20;;;;;;;;;;;28.90;99.90;;;;;;15684316;22;19922;-37
2023/09/08 17:00:22;;;;;;;;;;;28.60;99.90;;;;;;15689246;22;20000;-36
2023/09/08 17:06:24;;;;;;;;;;;28.50;99.90;;;;;;15687497;22;20435;-36
2023/09/08 17:12:26;;;;;;;;;;;28.20;99.90;;;;;;15687330;22;19953;-38
2023/09/08 17:18:28;;;;;;;;;;;28.00;99.90;;;;;;15694127;22;19992;-36
2023/09/08 17:24:29;;;;;;;;;;;27.70;99.90;;;;;;15688680;22;20423;-36
2023/09/08 17:30:31;;;;;;;;;;;27.40;99.90;;;;;;15695469;22;19946;-36
2023/09/08 17:36:33;;;;;;;;;;;27.20;99.90;;;;;;15666347;22;20003;-38
2023/09/08 17:42:35;;;;;;;;;;;26.70;99.90;;;;;;15699818;22;20380;-35
2023/09/08 17:48:37;;;;;;;;;;;26.50;99.90;;;;;;15697517;22;20060;-35
2023/09/08 17:54:38;;;;;;;;;;;26.20;99.90;;;;;;15697156;22;19922;-35
2023/09/08 18:00:41;;;;;;;;;;;25.70;99.90;;;;;;15685840;22;19922;-35
2023/09/08 18:06:43;;;;;;;;;;;25.10;99.90;;;;;;15694460;22;20367;-35
2023/09/08 18:12:45;;;;;;;;;;;24.70;99.90;;;;;;15679191;22;19998;-35
2023/09/08 18:18:47;;;;;;;;;;;24.50;99.90;;;;;;15686354;22;19946;-36
2023/09/08 18:24:49;;;;;;;;;;;24.40;99.90;;;;;;15684279;22;20420;-35
2023/09/08 18:30:52;;;;;;;;;;;24.20;99.90;;;;;;15666960;22;19933;-35
2023/09/08 18:36:54;;;;;;;;;;;24.00;99.90;;;;;;15698735;22;20331;-35
2023/09/08 18:42:55;;;;;;;;;;;23.80;99.90;;;;;;15690537;22;20003;-36
2023/09/08 18:48:57;;;;;;;;;;;23.80;99.90;;;;;;15663648;22;19927;-37
2023/09/08 18:54:59;;;;;;;;;;;23.70;99.90;;;;;;15657637;22;20028;-35
2023/09/08 19:01:01;;;;;;;;;;;23.80;99.90;;;;;;15693100;22;20411;-36
2023/09/08 19:07:03;;;;;;;;;;;23.80;99.90;;;;;;15695148;22;20168;-36
2023/09/08 19:13:05;;;;;;;;;;;23.80;99.90;;;;;;15689235;22;19954;-36
2023/09/08 19:19:06;;;;;;;;;;;23.80;99.90;;;;;;15693239;22;20047;-35
2023/09/08 19:25:09;;;;;;;;;;;23.60;99.90;;;;;;15694904;22;20469;-36
2023/09/08 19:31:11;;;;;;;;;;;23.40;99.90;;;;;;15700979;22;20258;-38
2023/09/08 19:37:13;;;;;;;;;;;23.20;99.90;;;;;;15693388;22;19968;-36
2023/09/08 19:43:15;;;;;;;;;;;23.20;99.90;;;;;;15698185;22;19953;-37
2023/09/08 19:49:17;;;;;;;;;;;22.90;99.90;;;;;;15696612;22;19938;-35
2023/09/08 19:55:19;;;;;;;;;;;22.70;99.90;;;;;;15696570;22;19938;-35
2023/09/08 20:01:21;;;;;;;;;;;22.60;99.90;;;;;;15695034;22;19989;-35
2023/09/08 20:07:24;;;;;;;;;;;22.40;99.90;;;;;;15699917;22;19971;-36
2023/09/08 20:13:26;;;;;;;;;;;22.50;99.90;;;;;;15698373;22;20246;-35
2023/09/08 20:19:28;;;;;;;;;;;22.40;99.90;;;;;;15701227;22;20029;-35
2023/09/08 20:25:29;;;;;;;;;;;22.50;99.90;;;;;;15695924;22;19923;-35
2023/09/08 20:31:31;;;;;;;;;;;22.40;99.90;;;;;;15696442;22;20339;-36
2023/09/08 20:37:33;;;;;;;;;;;22.40;99.90;;;;;;15699652;22;19922;-36
2023/09/08 20:43:35;;;;;;;;;;;22.40;99.90;;;;;;15698628;22;19919;-35
2023/09/08 20:49:37;;;;;;;;;;;22.40;99.90;;;;;;15698241;22;20435;-35
2023/09/08 20:55:39;;;;;;;;;;;22.50;99.90;;;;;;15701434;22;20007;-35
2023/09/08 21:01:41;;;;;;;;;;;22.60;99.90;;;;;;15695914;22;19965;-35
2023/09/08 21:07:42;;;;;;;;;;;22.50;99.90;;;;;;15670091;22;19922;-36
2023/09/08 21:13:44;;;;;;;;;;;22.40;99.90;;;;;;15697004;22;20021;-35
2023/09/08 21:19:46;;;;;;;;;;;22.40;99.90;;;;;;15672918;22;20356;-35
2023/09/08 21:25:48;;;;;;;;;;;22.30;99.90;;;;;;15698146;22;19926;-38
2023/09/08 21:31:50;;;;;;;;;;;22.20;99.90;;;;;;15694729;22;19919;-35
2023/09/08 21:37:51;;;;;;;;;;;22.10;99.90;;;;;;15697542;22;19922;-35
2023/09/08 21:43:53;;;;;;;;;;;22.00;99.90;;;;;;15693057;22;19982;-35
2023/09/08 21:49:55;;;;;;;;;;;21.90;99.90;;;;;;15696841;22;19961;-35
2023/09/08 21:55:57;;;;;;;;;;;21.70;99.90;;;;;;15689430;22;20362;-35
2023/09/08 22:01:58;;;;;;;;;;;21.60;99.90;;;;;;15692724;22;20676;-35
2023/09/08 22:08:00;;;;;;;;;;;21.70;99.90;;;;;;15670072;22;20344;-35
2023/09/08 22:14:02;;;;;;;;;;;21.80;99.90;;;;;;15694983;22;19933;-35
2023/09/08 22:20:16;;;;;;;;;;;21.70;99.90;;;;;;15700930;22;20001;-35
2023/09/08 22:26:18;;;;;;;;;;;21.40;99.90;;;;;;15695922;22;19946;-35
2023/09/08 22:32:20;;;;;;;;;;;21.40;99.90;;;;;;15701291;22;20298;-35
2023/09/08 22:38:22;;;;;;;;;;;21.40;99.90;;;;;;15671302;22;20343;-35
2023/09/08 22:44:23;;;;;;;;;;;21.20;99.90;;;;;;15694206;22;19981;-35
2023/09/08 22:50:26;;;;;;;;;;;21.00;99.90;;;;;;15699110;22;20415;-36
2023/09/08 22:56:28;;;;;;;;;;;21.00;99.90;;;;;;15619242;22;19933;-35
2023/09/08 23:02:30;;;;;;;;;;;20.90;99.90;;;;;;15621634;22;19926;-35
2023/09/08 23:08:32;;;;;;;;;;;20.80;99.90;;;;;;15621121;22;20459;-35
2023/09/08 23:14:37;;;;;;;;;;;20.70;99.90;;;;;;15618508;22;19923;-35
2023/09/08 23:20:54;;;;;;;;;;;20.70;99.90;;;;;;15622111;22;20376;-35
2023/09/08 23:26:55;;;;;;;;;;;20.60;99.90;;;;;;15622326;22;19923;-35
2023/09/08 23:32:57;;;;;;;;;;;20.60;99.90;;;;;;15619739;22;19923;-35
2023/09/08 23:38:59;;;;;;;;;;;20.60;99.90;;;;;;15623258;22;19926;-36
2023/09/08 23:45:02;;;;;;;;;;;20.50;99.90;;;;;;15617644;22;20349;-35
2023/09/08 23:51:04;;;;;;;;;;;20.50;99.90;;;;;;15628833;22;20313;-35
2023/09/08 23:57:06;;;;;;;;;;;20.50;99.90;;;;;;15698364;22;19988;-35
